Time;durP1;ratioP1;P1;durP2;ratioP2;P2;SDS_P1;SDS_P2;PMS_P1;PMS_P2;Temp;Humidity;BMP_temperature;BMP_pressure;BME280_temperature;BME280_humidity;BME280_pressure;Samples;Min_cycle;Max_cycle;Signal;HPM_P1;HPM_P2
2021/07/20 00:01:25;;;;;;;23.38;16.80;;;23.40;59.30;;;;;;5187526;27;27405;-50
2021/07/20 00:04:15;;;;;;;28.38;15.63;;;23.40;59.10;;;;;;5185597;27;27441;-54
2021/07/20 00:07:00;;;;;;;21.33;16.63;;;23.40;59.10;;;;;;5172158;27;27415;-48
2021/07/20 00:09:44;;;;;;;21.98;15.65;;;23.40;59.10;;;;;;5171739;27;27361;-49
2021/07/20 00:12:29;;;;;;;21.83;15.95;;;23.40;59.10;;;;;;5187293;27;27371;-48
2021/07/20 00:15:13;;;;;;;22.33;16.80;;;23.30;59.10;;;;;;5182661;27;27329;-54
2021/07/20 00:17:59;;;;;;;19.20;15.40;;;23.30;59.10;;;;;;5186444;27;27377;-48
2021/07/20 00:20:44;;;;;;;23.67;16.70;;;23.30;59.20;;;;;;5168058;27;27384;-51
2021/07/20 00:23:29;;;;;;;19.13;15.68;;;23.20;59.20;;;;;;5186035;27;27430;-48
2021/07/20 00:26:13;;;;;;;26.45;15.88;;;23.20;59.40;;;;;;5187034;27;27320;-52
2021/07/20 00:28:58;;;;;;;17.73;14.25;;;23.20;59.40;;;;;;5171270;27;27513;-49
2021/07/20 00:31:43;;;;;;;23.13;16.77;;;23.10;59.50;;;;;;5186741;27;27417;-52
2021/07/20 00:34:27;;;;;;;19.73;15.55;;;23.10;59.50;;;;;;5190012;27;27343;-50
2021/07/20 00:37:12;;;;;;;22.23;15.90;;;23.10;59.60;;;;;;5186622;27;27342;-55
2021/07/20 00:39:57;;;;;;;20.95;15.95;;;23.00;59.50;;;;;;5190753;27;27525;-48
2021/07/20 00:42:42;;;;;;;19.95;14.60;;;23.00;59.50;;;;;;5190680;27;27396;-48
2021/07/20 00:45:27;;;;;;;22.48;15.20;;;23.00;59.50;;;;;;5189893;27;27360;-50
2021/07/20 00:48:12;;;;;;;23.50;15.48;;;23.00;59.50;;;;;;5190404;27;27395;-48
2021/07/20 00:50:58;;;;;;;21.25;15.40;;;22.90;59.60;;;;;;5189540;27;27350;-48
2021/07/20 00:53:43;;;;;;;22.65;16.05;;;22.90;59.70;;;;;;5174502;27;26951;-49
2021/07/20 00:56:28;;;;;;;23.88;16.00;;;22.90;59.60;;;;;;5190499;27;27389;-52
2021/07/20 00:59:13;;;;;;;25.48;16.45;;;22.80;59.60;;;;;;5189278;27;27377;-51
2021/07/20 01:02:02;;;;;;;21.10;16.02;;;22.80;59.80;;;;;;5186182;27;27409;-49
2021/07/20 01:04:48;;;;;;;22.77;15.45;;;22.80;59.60;;;;;;5173880;27;27430;-50
2021/07/20 01:07:34;;;;;;;25.75;16.95;;;22.70;59.70;;;;;;5189212;27;27417;-50
2021/07/20 01:10:21;;;;;;;20.85;15.30;;;22.70;59.90;;;;;;5190306;27;27482;-49
2021/07/20 01:13:06;;;;;;;21.23;15.02;;;22.70;60.00;;;;;;5156436;27;27421;-49
2021/07/20 01:15:52;;;;;;;19.38;15.43;;;22.60;59.90;;;;;;5156771;27;27352;-49
2021/07/20 01:18:39;;;;;;;21.48;15.82;;;22.60;60.00;;;;;;5189872;27;27402;-51
2021/07/20 01:21:26;;;;;;;24.27;16.90;;;22.60;60.10;;;;;;5189154;27;27391;-53
2021/07/20 01:24:13;;;;;;;23.38;15.23;;;22.60;60.10;;;;;;5190064;27;27451;-52
2021/07/20 01:26:58;;;;;;;24.73;18.42;;;22.50;60.20;;;;;;5189212;27;27532;-52
2021/07/20 01:29:44;;;;;;;24.10;16.15;;;22.50;60.20;;;;;;5185706;27;27421;-52
2021/07/20 01:32:30;;;;;;;21.88;15.93;;;22.50;60.20;;;;;;5185445;27;27474;-52
2021/07/20 01:35:16;;;;;;;23.05;15.57;;;22.50;60.40;;;;;;5170478;27;27396;-54
2021/07/20 01:38:03;;;;;;;19.48;14.55;;;22.50;60.40;;;;;;5189494;27;27400;-53
2021/07/20 01:40:49;;;;;;;22.20;16.83;;;22.40;60.40;;;;;;5170633;27;27392;-51
2021/07/20 01:43:36;;;;;;;21.98;15.10;;;22.50;60.50;;;;;;5170338;27;27387;-53
2021/07/20 01:46:21;;;;;;;20.90;15.45;;;22.40;60.60;;;;;;5171278;27;27394;-53
2021/07/20 01:49:12;;;;;;;23.17;15.55;;;22.40;60.40;;;;;;5173947;27;27434;-52
2021/07/20 01:51:59;;;;;;;22.55;16.02;;;22.40;60.70;;;;;;5171542;27;27386;-51
2021/07/20 01:54:45;;;;;;;21.52;15.10;;;22.30;60.90;;;;;;5170457;27;27330;-53
2021/07/20 01:57:33;;;;;;;20.80;15.27;;;22.30;60.70;;;;;;5156148;27;27483;-51
2021/07/20 02:00:31;;;;;;;22.50;15.45;;;22.30;61.00;;;;;;5172134;27;27431;-54
2021/07/20 02:09:44;;;;;;;19.98;15.70;;;22.20;61.20;;;;;;5173151;27;27421;-54
2021/07/20 02:12:33;;;;;;;23.45;16.60;;;22.20;61.40;;;;;;5171529;27;27499;-54
2021/07/20 02:15:46;;;;;;;20.27;14.82;;;22.10;61.30;;;;;;5188408;27;27437;-55
2021/07/20 02:18:53;;;;;;;20.33;15.07;;;22.10;61.30;;;;;;5159095;27;27371;-56
2021/07/20 02:21:56;;;;;;;20.30;15.93;;;22.10;61.40;;;;;;5172473;27;27386;-55
2021/07/20 02:24:41;;;;;;;23.40;15.43;;;22.00;61.40;;;;;;5188198;27;27347;-54
2021/07/20 02:27:26;;;;;;;18.90;14.50;;;22.00;61.60;;;;;;5188125;27;27434;-54
2021/07/20 02:30:21;;;;;;;18.45;15.07;;;22.00;61.70;;;;;;5187849;27;27503;-55
2021/07/20 02:33:06;;;;;;;22.33;15.57;;;22.00;61.70;;;;;;5188592;27;27455;-55
2021/07/20 02:35:52;;;;;;;21.58;14.90;;;22.00;61.80;;;;;;5187930;27;27342;-53
2021/07/20 02:38:51;;;;;;;18.23;14.45;;;21.90;61.70;;;;;;5146836;27;27295;-53
2021/07/20 02:41:42;;;;;;;20.83;15.07;;;21.80;61.90;;;;;;5170448;27;27403;-55
2021/07/20 02:44:26;;;;;;;19.35;14.70;;;21.80;61.90;;;;;;5187603;27;27366;-55
2021/07/20 02:47:11;;;;;;;22.45;14.80;;;21.80;62.10;;;;;;5140555;27;27360;-55
2021/07/20 02:49:56;;;;;;;20.63;14.60;;;21.70;62.20;;;;;;5169396;27;27388;-54
2021/07/20 02:52:46;;;;;;;23.25;14.50;;;21.70;62.10;;;;;;5154752;27;27335;-53
2021/07/20 02:55:36;;;;;;;22.35;14.30;;;21.70;62.30;;;;;;5169358;27;27484;-54
2021/07/20 02:58:21;;;;;;;18.13;14.52;;;21.70;62.30;;;;;;5184343;27;27482;-54
2021/07/20 03:01:07;;;;;;;18.67;14.70;;;21.60;62.30;;;;;;5184075;27;27330;-55
2021/07/20 03:03:53;;;;;;;18.83;13.98;;;21.60;62.50;;;;;;5170724;27;27392;-54
2021/07/20 03:06:44;;;;;;;19.65;14.65;;;21.60;62.40;;;;;;5171711;27;27413;-55
2021/07/20 03:09:30;;;;;;;17.75;14.40;;;21.50;62.50;;;;;;5187317;27;27490;-53
2021/07/20 03:12:15;;;;;;;21.80;14.40;;;21.50;62.50;;;;;;5188266;27;27419;-54
2021/07/20 03:15:02;;;;;;;21.88;13.80;;;21.50;62.60;;;;;;5187810;27;27403;-55
2021/07/20 03:18:07;;;;;;;21.90;13.73;;;21.50;62.80;;;;;;5183581;27;27375;-56
2021/07/20 03:20:52;;;;;;;19.20;14.25;;;21.40;62.80;;;;;;5188035;27;27354;-54
2021/07/20 03:23:38;;;;;;;21.17;15.07;;;21.40;62.80;;;;;;5169088;27;27399;-54
2021/07/20 03:26:24;;;;;;;19.35;14.95;;;21.40;62.90;;;;;;5186957;27;27387;-54
2021/07/20 03:29:10;;;;;;;18.30;14.63;;;21.40;63.00;;;;;;5183535;27;27408;-54
2021/07/20 03:31:55;;;;;;;20.90;14.70;;;21.40;63.00;;;;;;5169156;27;27355;-55
2021/07/20 03:34:41;;;;;;;18.42;13.10;;;21.30;63.00;;;;;;5184838;27;27684;-54
2021/07/20 03:37:26;;;;;;;21.42;14.95;;;21.30;63.10;;;;;;5168823;27;27335;-54
2021/07/20 03:40:11;;;;;;;18.20;13.38;;;21.30;63.00;;;;;;5172066;27;27514;-54
2021/07/20 03:42:56;;;;;;;20.25;13.90;;;21.30;63.10;;;;;;5187564;27;27404;-53
2021/07/20 03:45:43;;;;;;;20.65;14.23;;;21.30;63.20;;;;;;5154710;27;27402;-55
2021/07/20 03:48:30;;;;;;;20.13;14.00;;;21.20;63.20;;;;;;5183378;27;27942;-53
2021/07/20 03:51:21;;;;;;;18.92;13.27;;;21.20;63.50;;;;;;5169336;27;27475;-53
2021/07/20 03:54:07;;;;;;;19.48;13.80;;;21.20;63.40;;;;;;5168683;27;27403;-54
2021/07/20 03:56:52;;;;;;;17.85;13.63;;;21.20;63.70;;;;;;5153915;27;27491;-53
2021/07/20 03:59:37;;;;;;;20.10;14.52;;;21.20;63.60;;;;;;5168279;27;27469;-53
2021/07/20 04:02:50;;;;;;;17.15;13.50;;;21.10;63.70;;;;;;5173830;27;27511;-56
2021/07/20 04:06:04;;;;;;;25.40;15.20;;;21.10;63.80;;;;;;5183570;27;27485;-55
2021/07/20 04:08:50;;;;;;;15.95;12.93;;;21.10;63.90;;;;;;5140208;27;27327;-55
2021/07/20 04:11:35;;;;;;;18.60;13.88;;;21.10;63.90;;;;;;5172278;27;27414;-54
2021/07/20 04:14:20;;;;;;;20.38;13.80;;;21.10;64.00;;;;;;5183207;27;27491;-55
2021/07/20 04:17:12;;;;;;;20.00;14.45;;;21.10;64.00;;;;;;5169420;27;27487;-55
2021/07/20 04:19:56;;;;;;;19.40;14.50;;;21.10;64.20;;;;;;5186965;27;27413;-54
2021/07/20 04:22:45;;;;;;;18.85;12.88;;;21.10;64.20;;;;;;5186719;27;27822;-53
2021/07/20 04:25:35;;;;;;;17.05;13.50;;;21.00;64.20;;;;;;5169322;27;27414;-52
2021/07/20 04:28:25;;;;;;;20.00;15.02;;;21.00;64.20;;;;;;5169164;27;27252;-53
2021/07/20 04:31:12;;;;;;;18.65;13.60;;;21.00;64.50;;;;;;5183429;27;27501;-55
2021/07/20 04:33:57;;;;;;;22.30;14.45;;;21.00;64.60;;;;;;5153600;27;27418;-54
2021/07/20 04:37:10;;;;;;;17.13;13.55;;;21.00;64.70;;;;;;5169654;27;27631;-54
2021/07/20 04:39:57;;;;;;;17.55;13.10;;;21.00;64.90;;;;;;5186750;27;27486;-55
2021/07/20 04:42:46;;;;;;;19.00;13.77;;;21.00;65.00;;;;;;5182986;27;27419;-51
2021/07/20 04:45:33;;;;;;;18.10;13.82;;;21.00;65.20;;;;;;5154640;27;27323;-55
2021/07/20 04:48:24;;;;;;;18.58;14.52;;;21.00;65.40;;;;;;5172495;27;27426;-55
2021/07/20 04:51:20;;;;;;;21.10;13.52;;;21.00;65.50;;;;;;5186444;27;27487;-52
2021/07/20 04:54:05;;;;;;;21.10;14.32;;;21.00;65.70;;;;;;5186321;27;27417;-53
2021/07/20 04:56:52;;;;;;;19.08;13.85;;;21.00;65.90;;;;;;5184489;27;27939;-53
2021/07/20 04:59:38;;;;;;;21.00;13.57;;;21.00;66.00;;;;;;5186921;27;27415;-54
2021/07/20 05:02:25;;;;;;;18.00;14.32;;;21.00;66.10;;;;;;5168741;27;27424;-54
2021/07/20 05:05:16;;;;;;;20.92;14.65;;;21.00;66.30;;;;;;5153861;27;27402;-53
2021/07/20 05:08:02;;;;;;;17.00;12.65;;;21.00;66.40;;;;;;5168179;27;27851;-53
2021/07/20 05:10:55;;;;;;;19.90;14.30;;;21.00;66.50;;;;;;5155091;27;27401;-53
2021/07/20 05:13:44;;;;;;;18.83;13.50;;;21.00;66.60;;;;;;5186778;27;27320;-53
2021/07/20 05:16:33;;;;;;;18.75;13.88;;;21.00;66.70;;;;;;5186722;27;27402;-55
2021/07/20 05:19:22;;;;;;;19.33;14.02;;;21.00;66.70;;;;;;5184154;27;27404;-51
2021/07/20 05:22:10;;;;;;;17.55;13.23;;;21.10;67.00;;;;;;5172085;27;27378;-54
2021/07/20 05:25:11;;;;;;;21.15;14.32;;;21.10;67.10;;;;;;5189714;27;27454;-54
2021/07/20 05:27:56;;;;;;;19.00;13.88;;;21.10;67.30;;;;;;5171536;27;27480;-54
2021/07/20 05:30:42;;;;;;;20.83;14.02;;;21.10;67.40;;;;;;5186242;27;27304;-56
2021/07/20 05:33:27;;;;;;;17.52;13.75;;;21.10;67.40;;;;;;5185961;27;27323;-55
2021/07/20 05:36:27;;;;;;;20.20;14.30;;;21.10;67.60;;;;;;5172802;27;27342;-56
2021/07/20 05:39:16;;;;;;;23.30;14.27;;;21.10;67.60;;;;;;5172880;27;27456;-56
2021/07/20 05:42:09;;;;;;;19.80;13.38;;;21.20;67.80;;;;;;5188459;27;27477;-57
2021/07/20 05:44:58;;;;;;;21.50;13.25;;;21.20;68.00;;;;;;5174477;27;27343;-56
2021/07/20 05:47:45;;;;;;;17.20;12.43;;;21.20;68.10;;;;;;5170530;27;27417;-56
2021/07/20 05:50:33;;;;;;;20.92;13.98;;;21.20;68.10;;;;;;5156671;27;26919;-57
2021/07/20 05:53:36;;;;;;;18.25;12.48;;;21.20;68.20;;;;;;5163759;27;27489;-57
2021/07/20 05:56:40;;;;;;;19.90;12.65;;;21.20;68.30;;;;;;5188159;27;27440;-57
2021/07/20 05:59:43;;;;;;;17.58;12.98;;;21.30;68.40;;;;;;5163821;27;26978;-57
2021/07/20 06:02:36;;;;;;;16.95;11.82;;;21.30;68.50;;;;;;5156051;27;27514;-57
2021/07/20 06:05:29;;;;;;;18.27;13.48;;;21.30;68.50;;;;;;5172363;27;27524;-57
2021/07/20 06:08:15;;;;;;;17.92;11.48;;;21.40;68.70;;;;;;5188236;27;27481;-57
2021/07/20 06:11:02;;;;;;;22.98;12.60;;;21.50;68.80;;;;;;5188200;27;27469;-58
2021/07/20 06:13:53;;;;;;;15.15;11.02;;;21.60;68.70;;;;;;5189032;27;27353;-57
2021/07/20 06:16:41;;;;;;;17.70;13.15;;;21.70;68.50;;;;;;5188417;27;27855;-57
2021/07/20 06:19:27;;;;;;;14.30;11.18;;;21.90;68.50;;;;;;5174152;27;27418;-57
2021/07/20 06:22:12;;;;;;;16.38;11.57;;;22.00;67.80;;;;;;5171081;27;27334;-58
2021/07/20 06:25:15;;;;;;;15.50;12.98;;;22.20;67.80;;;;;;5185764;27;27428;-58
2021/07/20 06:28:00;;;;;;;17.42;12.10;;;22.30;66.70;;;;;;5188846;27;27426;-58
2021/07/20 06:30:48;;;;;;;18.65;12.68;;;22.50;66.80;;;;;;5169400;27;27493;-58
2021/07/20 06:33:34;;;;;;;18.23;11.88;;;22.60;66.50;;;;;;5173412;27;27467;-58
2021/07/20 06:36:19;;;;;;;15.80;10.80;;;22.70;66.50;;;;;;5185673;27;27334;-58
2021/07/20 06:39:06;;;;;;;17.13;11.90;;;22.90;66.60;;;;;;5188905;27;27318;-58
2021/07/20 06:41:51;;;;;;;16.95;12.63;;;23.00;66.40;;;;;;5188858;27;27358;-58
2021/07/20 06:44:39;;;;;;;17.00;12.27;;;23.10;67.00;;;;;;5173420;27;27642;-58
2021/07/20 06:47:24;;;;;;;15.40;11.93;;;23.20;65.70;;;;;;5189239;27;27473;-58
2021/07/20 06:50:12;;;;;;;16.25;11.90;;;23.30;65.40;;;;;;5189522;27;27434;-59
2021/07/20 06:52:57;;;;;;;17.52;12.05;;;23.40;65.70;;;;;;5188367;27;27497;-58
2021/07/20 06:55:49;;;;;;;15.07;11.02;;;23.60;65.50;;;;;;5188108;27;27420;-59
2021/07/20 06:58:37;;;;;;;19.42;12.05;;;23.70;65.40;;;;;;5173063;27;27831;-58
2021/07/20 07:01:34;;;;;;;17.88;11.95;;;23.80;64.80;;;;;;5188442;27;27486;-59
2021/07/20 07:04:25;;;;;;;19.00;12.70;;;23.90;64.40;;;;;;5173582;27;27452;-58
2021/07/20 07:07:10;;;;;;;16.48;11.77;;;24.00;64.50;;;;;;5188493;27;27467;-58
2021/07/20 07:10:00;;;;;;;17.70;12.35;;;24.10;64.50;;;;;;5170218;27;27492;-58
2021/07/20 07:12:46;;;;;;;14.80;10.90;;;24.20;64.40;;;;;;5173559;27;27391;-58
2021/07/20 07:15:31;;;;;;;19.17;12.75;;;24.30;64.60;;;;;;5187788;27;27423;-59
2021/07/20 07:18:15;;;;;;;19.92;12.13;;;24.40;59.60;;;;;;5188069;27;27438;-60
2021/07/20 07:21:01;;;;;;;19.75;12.27;;;24.40;56.30;;;;;;5189132;27;27388;-60
2021/07/20 07:23:47;;;;;;;20.92;12.75;;;24.40;56.10;;;;;;5173126;27;27983;-60
2021/07/20 07:26:32;;;;;;;19.48;11.77;;;24.50;56.40;;;;;;5188103;27;27467;-60
2021/07/20 07:29:18;;;;;;;19.98;12.63;;;24.50;55.80;;;;;;5188714;27;27408;-60
2021/07/20 07:32:03;;;;;;;18.17;11.95;;;24.60;55.60;;;;;;5173444;27;27387;-60
2021/07/20 07:34:48;;;;;;;15.98;11.60;;;24.60;55.40;;;;;;5172836;27;27493;-60
2021/07/20 07:37:33;;;;;;;17.92;11.98;;;24.70;55.10;;;;;;5188748;27;27417;-60
2021/07/20 07:40:17;;;;;;;18.42;12.45;;;24.80;54.80;;;;;;5187177;27;27437;-60
2021/07/20 07:43:03;;;;;;;16.45;11.15;;;24.90;54.30;;;;;;5158145;27;27468;-60
2021/07/20 07:45:48;;;;;;;20.10;11.38;;;25.00;54.20;;;;;;5188592;27;27881;-60
2021/07/20 07:48:37;;;;;;;17.77;11.38;;;25.10;53.60;;;;;;5187795;27;27405;-60
2021/07/20 07:51:22;;;;;;;20.50;11.60;;;25.20;53.80;;;;;;5173721;27;27450;-60
2021/07/20 07:54:07;;;;;;;19.38;12.75;;;25.40;54.10;;;;;;5187379;27;27383;-60
2021/07/20 07:56:52;;;;;;;18.13;12.00;;;25.50;53.30;;;;;;5188145;27;28009;-60
2021/07/20 07:59:40;;;;;;;18.10;12.02;;;25.60;53.00;;;;;;5172914;27;27322;-60
2021/07/20 08:02:30;;;;;;;17.38;11.38;;;25.70;53.50;;;;;;5187646;27;27343;-60
2021/07/20 08:05:15;;;;;;;17.33;11.25;;;25.80;52.20;;;;;;5172898;27;27481;-60
2021/07/20 08:08:00;;;;;;;15.80;11.38;;;25.90;51.20;;;;;;5172151;27;27461;-60
2021/07/20 08:10:44;;;;;;;16.13;10.95;;;26.10;53.10;;;;;;5187164;27;27475;-60
2021/07/20 08:13:29;;;;;;;15.70;10.88;;;26.30;54.50;;;;;;5172445;27;27457;-60
2021/07/20 08:16:15;;;;;;;12.35;9.82;;;26.60;55.30;;;;;;5154686;27;27466;-60
2021/07/20 08:19:00;;;;;;;15.75;9.68;;;26.80;55.90;;;;;;5188121;27;27898;-61
2021/07/20 08:21:46;;;;;;;13.10;8.98;;;27.00;55.80;;;;;;5172643;27;27499;-61
2021/07/20 08:24:31;;;;;;;15.05;10.13;;;27.30;56.40;;;;;;5172429;27;27409;-61
2021/07/20 08:27:30;;;;;;;14.07;10.18;;;27.50;55.90;;;;;;5172232;27;27469;-61
2021/07/20 08:30:15;;;;;;;13.40;9.52;;;27.70;56.10;;;;;;5173942;27;27377;-61
2021/07/20 08:33:00;;;;;;;14.90;10.13;;;27.90;55.00;;;;;;5187920;27;27342;-61
2021/07/20 08:35:45;;;;;;;13.13;9.35;;;28.00;55.20;;;;;;5168515;27;27423;-61
2021/07/20 08:38:31;;;;;;;17.05;10.20;;;28.20;55.20;;;;;;5187661;27;27350;-61
2021/07/20 08:41:25;;;;;;;13.02;9.38;;;28.40;54.70;;;;;;5187083;27;27345;-61
2021/07/20 08:44:27;;;;;;;16.50;9.45;;;28.50;55.80;;;;;;5187522;27;27341;-61
2021/07/20 08:47:17;;;;;;;13.68;10.32;;;28.70;54.70;;;;;;5187059;27;27350;-61
2021/07/20 08:50:27;;;;;;;12.82;9.70;;;28.80;55.70;;;;;;5187032;27;27380;-61
2021/07/20 08:53:18;;;;;;;13.85;9.82;;;28.90;55.00;;;;;;5183318;27;27355;-61
2021/07/20 08:56:04;;;;;;;15.07;9.05;;;29.10;54.50;;;;;;5191208;27;27475;-62
2021/07/20 08:59:01;;;;;;;13.63;10.18;;;29.30;55.80;;;;;;5190632;27;27448;-62
2021/07/20 09:02:00;;;;;;;14.13;10.90;;;29.40;54.60;;;;;;5189827;27;27575;-63
2021/07/20 09:05:30;;;;;;;13.90;11.07;;;29.50;53.70;;;;;;5174135;27;27415;-63
2021/07/20 09:08:44;;;;;;;13.23;10.35;;;29.60;54.00;;;;;;5190809;27;27459;-63
2021/07/20 09:11:47;;;;;;;16.73;10.73;;;29.60;52.50;;;;;;5187132;27;27452;-62
2021/07/20 09:14:45;;;;;;;14.38;10.02;;;29.70;52.30;;;;;;5191028;27;27436;-62
2021/07/20 09:18:00;;;;;;;13.93;10.48;;;29.70;52.60;;;;;;5190394;27;27509;-62
2021/07/20 09:20:46;;;;;;;16.88;10.35;;;29.90;54.10;;;;;;5191033;27;27473;-62
2021/07/20 09:23:43;;;;;;;17.10;11.60;;;30.00;54.40;;;;;;5175575;27;27452;-62
2021/07/20 09:26:35;;;;;;;17.15;11.18;;;30.20;53.10;;;;;;5190981;27;27408;-63
2021/07/20 09:29:21;;;;;;;12.80;10.85;;;30.30;52.90;;;;;;5189984;27;27581;-63
2021/07/20 09:32:09;;;;;;;14.98;11.38;;;30.40;52.40;;;;;;5189866;27;27513;-63
2021/07/20 09:35:26;;;;;;;14.45;10.50;;;30.50;52.50;;;;;;5190344;27;27374;-63
2021/07/20 09:38:29;;;;;;;13.98;11.30;;;30.60;52.60;;;;;;5157474;27;27429;-63
2021/07/20 09:41:33;;;;;;;12.98;10.90;;;30.60;52.70;;;;;;5190415;27;27311;-63
2021/07/20 09:44:31;;;;;;;14.98;11.20;;;30.40;52.60;;;;;;5176416;27;27331;-62
2021/07/20 09:47:25;;;;;;;15.27;11.52;;;30.00;52.30;;;;;;5186268;27;27401;-63
2021/07/20 09:50:17;;;;;;;13.23;10.63;;;29.80;53.00;;;;;;5190543;27;27358;-62
2021/07/20 09:53:40;;;;;;;15.52;11.20;;;29.80;53.40;;;;;;5190446;27;27470;-62
2021/07/20 09:56:42;;;;;;;12.45;9.95;;;29.60;54.00;;;;;;5182730;27;27623;-62
2021/07/20 09:59:47;;;;;;;14.07;10.82;;;29.30;55.00;;;;;;5189349;27;27318;-63
2021/07/20 10:02:56;;;;;;;16.08;11.27;;;29.10;56.20;;;;;;5190074;27;27309;-63
2021/07/20 10:06:22;;;;;;;14.38;10.93;;;29.10;55.90;;;;;;5189279;27;27828;-63
2021/07/20 10:09:15;;;;;;;12.43;10.93;;;29.30;54.80;;;;;;5186046;27;27492;-62
2021/07/20 10:12:00;;;;;;;14.43;11.15;;;29.40;54.10;;;;;;5190019;27;27462;-63
2021/07/20 10:14:45;;;;;;;13.32;10.73;;;29.60;53.80;;;;;;5189161;27;27455;-62
2021/07/20 10:17:31;;;;;;;14.65;11.60;;;29.60;54.90;;;;;;5190066;27;27866;-62
2021/07/20 10:20:23;;;;;;;14.65;10.77;;;29.60;55.40;;;;;;5189783;27;27472;-62
2021/07/20 10:23:34;;;;;;;17.42;10.52;;;29.50;55.60;;;;;;5189804;27;27409;-62
2021/07/20 10:26:24;;;;;;;13.43;9.98;;;29.50;55.50;;;;;;5188796;27;27426;-62
2021/07/20 10:29:32;;;;;;;15.20;11.00;;;29.40;56.10;;;;;;5188896;27;27493;-62
2021/07/20 10:32:28;;;;;;;12.75;10.07;;;29.30;55.80;;;;;;5189582;27;27397;-62
2021/07/20 10:35:22;;;;;;;17.92;10.65;;;29.30;56.30;;;;;;5189307;27;27399;-63
2021/07/20 10:38:08;;;;;;;13.32;11.55;;;29.40;56.00;;;;;;5189493;27;27466;-63
2021/07/20 10:40:53;;;;;;;14.50;10.60;;;29.50;56.00;;;;;;5174377;27;27902;-63
2021/07/20 10:44:02;;;;;;;14.82;10.65;;;29.80;55.60;;;;;;5174263;27;27360;-64
2021/07/20 10:46:49;;;;;;;13.95;11.02;;;30.20;56.60;;;;;;5188344;27;27340;-62
2021/07/20 10:49:45;;;;;;;14.55;11.63;;;30.60;55.30;;;;;;5188603;27;27471;-64
2021/07/20 10:52:46;;;;;;;16.98;11.77;;;30.90;54.60;;;;;;5186660;27;27482;-62
2021/07/20 10:55:43;;;;;;;15.35;10.43;;;31.20;52.90;;;;;;5189247;27;27345;-63
2021/07/20 10:59:06;;;;;;;13.13;11.15;;;31.40;52.70;;;;;;5189322;27;27468;-64
2021/07/20 11:02:05;;;;;;;17.27;11.80;;;31.50;51.70;;;;;;5186651;27;27392;-63
2021/07/20 11:04:58;;;;;;;15.65;10.93;;;31.60;51.40;;;;;;5188311;27;27434;-63
2021/07/20 11:07:48;;;;;;;15.93;11.52;;;31.60;51.10;;;;;;5174042;27;27431;-63
2021/07/20 11:10:47;;;;;;;13.88;10.50;;;31.70;51.90;;;;;;5174011;27;27384;-62
2021/07/20 11:13:33;;;;;;;13.45;10.93;;;31.80;53.70;;;;;;5184934;27;27372;-63
2021/07/20 11:16:21;;;;;;;14.10;10.35;;;31.90;53.80;;;;;;5187343;27;27952;-63
2021/07/20 11:19:06;;;;;;;13.20;11.13;;;31.90;52.30;;;;;;5170529;27;27540;-63
2021/07/20 11:21:51;;;;;;;14.50;10.77;;;31.90;51.50;;;;;;5173551;27;27421;-63
2021/07/20 11:24:38;;;;;;;14.45;11.80;;;31.70;52.60;;;;;;5155471;27;27397;-62
2021/07/20 11:27:23;;;;;;;16.95;11.82;;;31.50;52.50;;;;;;5188994;27;27878;-63
2021/07/20 11:30:16;;;;;;;12.98;11.10;;;31.20;53.10;;;;;;5187760;27;27326;-62
2021/07/20 11:33:04;;;;;;;15.40;11.18;;;31.10;53.20;;;;;;5187867;27;27514;-63
2021/07/20 11:35:52;;;;;;;17.08;11.55;;;31.20;53.60;;;;;;5187750;27;27343;-63
2021/07/20 11:38:37;;;;;;;15.10;11.85;;;31.30;52.80;;;;;;5187630;27;27874;-62
2021/07/20 11:41:25;;;;;;;15.80;12.52;;;31.50;53.40;;;;;;5169552;27;27441;-62
2021/07/20 11:44:23;;;;;;;16.75;13.15;;;31.60;53.30;;;;;;5188446;27;27425;-63
2021/07/20 11:47:28;;;;;;;16.15;13.43;;;31.70;53.30;;;;;;5187069;27;27330;-62
2021/07/20 11:50:44;;;;;;;16.80;13.13;;;31.80;51.50;;;;;;5188173;27;27979;-64
2021/07/20 11:54:09;;;;;;;18.13;13.40;;;31.80;52.60;;;;;;5169224;27;27427;-62
2021/07/20 11:57:07;;;;;;;18.15;13.13;;;31.90;52.80;;;;;;5185813;27;27412;-62
2021/07/20 12:00:15;;;;;;;18.80;13.10;;;31.90;51.30;;;;;;5188101;27;27331;-62
2021/07/20 12:03:09;;;;;;;17.63;14.35;;;31.90;50.90;;;;;;5172760;27;27854;-62
2021/07/20 12:06:37;;;;;;;17.38;13.93;;;31.90;52.10;;;;;;5187540;27;27491;-63
2021/07/20 12:09:55;;;;;;;20.00;13.57;;;31.80;52.30;;;;;;5179237;27;27409;-62
2021/07/20 12:12:47;;;;;;;16.40;12.98;;;31.80;52.40;;;;;;5187946;27;27394;-62
2021/07/20 12:15:33;;;;;;;22.05;14.75;;;31.80;53.70;;;;;;5187550;27;27486;-63
2021/07/20 12:18:23;;;;;;;19.42;15.35;;;31.90;53.50;;;;;;5172608;27;27442;-63
2021/07/20 12:21:08;;;;;;;19.48;13.98;;;32.00;53.20;;;;;;5187124;27;27490;-63
2021/07/20 12:23:54;;;;;;;17.55;14.32;;;32.10;53.00;;;;;;5188156;27;26913;-62
2021/07/20 12:26:39;;;;;;;23.90;15.27;;;32.20;52.70;;;;;;5187797;27;27443;-62
2021/07/20 12:29:24;;;;;;;20.70;14.88;;;32.30;51.80;;;;;;5186697;27;27493;-63
2021/07/20 12:32:14;;;;;;;21.52;14.93;;;32.40;51.50;;;;;;5187275;27;27574;-63
2021/07/20 12:34:58;;;;;;;19.48;14.10;;;32.40;51.70;;;;;;5186631;27;27420;-62
2021/07/20 12:37:43;;;;;;;20.02;14.93;;;32.30;51.50;;;;;;5187808;27;27826;-62
2021/07/20 12:40:28;;;;;;;20.33;15.50;;;32.20;50.90;;;;;;5186999;27;27321;-62
2021/07/20 12:43:14;;;;;;;21.88;14.32;;;32.00;51.90;;;;;;5187886;27;27318;-62
2021/07/20 12:46:09;;;;;;;19.10;14.73;;;31.90;52.10;;;;;;5187863;27;27318;-62
2021/07/20 12:48:53;;;;;;;16.42;14.32;;;31.80;51.40;;;;;;5187726;27;27379;-62
2021/07/20 12:51:54;;;;;;;20.13;15.75;;;31.70;52.40;;;;;;5186926;27;27345;-62
2021/07/20 12:54:43;;;;;;;17.20;14.23;;;31.60;52.50;;;;;;5186536;27;27417;-62
2021/07/20 12:57:30;;;;;;;18.63;15.20;;;31.60;52.90;;;;;;5187431;27;27335;-62
2021/07/20 13:00:15;;;;;;;19.67;15.45;;;31.60;53.00;;;;;;5183445;27;27376;-63
2021/07/20 13:03:05;;;;;;;20.75;15.32;;;31.60;52.90;;;;;;5171687;27;27374;-62
2021/07/20 13:05:49;;;;;;;19.30;15.23;;;31.60;53.10;;;;;;5187628;27;27465;-62
2021/07/20 13:08:34;;;;;;;18.40;15.85;;;31.60;52.80;;;;;;5186227;27;27486;-62
2021/07/20 13:11:19;;;;;;;16.40;14.15;;;31.60;53.30;;;;;;5187450;27;27486;-62
2021/07/20 13:14:06;;;;;;;19.23;16.33;;;31.60;53.40;;;;;;5187062;27;27470;-62
2021/07/20 13:16:50;;;;;;;20.05;15.88;;;31.60;52.50;;;;;;5187252;27;27409;-64
2021/07/20 13:19:35;;;;;;;20.55;16.35;;;31.60;52.70;;;;;;5186330;27;27462;-62
2021/07/20 13:22:23;;;;;;;20.30;15.10;;;31.60;53.00;;;;;;5186521;27;27495;-62
2021/07/20 13:25:09;;;;;;;19.73;14.98;;;31.60;52.70;;;;;;5186357;27;27408;-62
2021/07/20 13:27:55;;;;;;;17.25;14.65;;;31.60;52.90;;;;;;5186218;27;27358;-62
2021/07/20 13:30:43;;;;;;;18.02;15.32;;;31.60;52.10;;;;;;5182898;27;27372;-62
2021/07/20 13:33:27;;;;;;;17.23;14.90;;;31.60;51.90;;;;;;5183026;27;27486;-62
2021/07/20 13:36:12;;;;;;;18.92;14.45;;;31.50;51.60;;;;;;5183601;27;27458;-62
2021/07/20 13:39:02;;;;;;;22.35;15.20;;;31.50;51.30;;;;;;5186480;27;27537;-62
2021/07/20 13:41:47;;;;;;;17.23;14.43;;;31.40;50.40;;;;;;5190432;27;27393;-62
2021/07/20 13:44:31;;;;;;;19.58;14.20;;;31.30;51.50;;;;;;5190346;27;27474;-62
2021/07/20 13:47:16;;;;;;;19.17;14.15;;;31.20;53.00;;;;;;5171363;27;27437;-62
2021/07/20 13:50:02;;;;;;;18.33;14.48;;;31.20;52.10;;;;;;5175200;27;27413;-62
2021/07/20 13:52:49;;;;;;;21.98;14.55;;;31.30;51.10;;;;;;5190587;27;27465;-62
2021/07/20 13:55:35;;;;;;;18.17;14.30;;;31.30;50.30;;;;;;5189345;27;27411;-62
2021/07/20 13:58:19;;;;;;;17.88;14.23;;;31.20;49.70;;;;;;5189257;27;27339;-62
2021/07/20 14:01:04;;;;;;;17.25;13.88;;;31.10;51.00;;;;;;5174976;27;27325;-62
2021/07/20 14:03:50;;;;;;;16.38;13.32;;;31.10;52.20;;;;;;5189623;27;27332;-62
2021/07/20 14:06:36;;;;;;;18.33;13.85;;;31.00;50.40;;;;;;5190344;27;27326;-61
2021/07/20 14:09:21;;;;;;;14.63;12.77;;;31.00;51.70;;;;;;5189540;27;27399;-62
2021/07/20 14:12:22;;;;;;;17.02;12.43;;;31.00;51.10;;;;;;5190000;27;27334;-63
2021/07/20 14:15:16;;;;;;;16.80;12.82;;;30.90;50.50;;;;;;5189341;27;27384;-71
2021/07/20 14:18:20;;;;;;;15.70;13.20;;;30.90;51.30;;;;;;5185754;27;27420;-72
2021/07/20 14:21:27;;;;;;;15.77;12.43;;;31.00;50.90;;;;;;5189263;27;27333;-62
2021/07/20 14:24:20;;;;;;;14.88;11.82;;;31.00;51.80;;;;;;5189907;27;27349;-65
2021/07/20 14:27:32;;;;;;;17.73;12.30;;;31.00;51.80;;;;;;5189408;27;27422;-64
2021/07/20 14:30:20;;;;;;;17.02;12.18;;;31.00;51.90;;;;;;5188886;27;27460;-63
2021/07/20 14:33:04;;;;;;;13.82;11.25;;;31.00;51.90;;;;;;5188869;27;27467;-62